sensor_id;sensor_type;location;lat;lon;timestamp;P1;P2;P0
66336;PMS1003;53139;45.576;5.304;2022-12-13T00:00:54;51.33;41.67;25.33
66336;PMS1003;53139;45.576;5.304;2022-12-13T00:03:55;63.00;49.00;30.33
66336;PMS1003;53139;45.576;5.304;2022-12-13T00:06:56;63.00;47.00;32.75
66336;PMS1003;53139;45.576;5.304;2022-12-13T00:09:57;69.67;52.00;34.00
66336;PMS1003;53139;45.576;5.304;2022-12-13T00:12:57;69.33;55.00;34.33
66336;PMS1003;53139;45.576;5.304;2022-12-13T00:15:58;55.25;46.25;28.75
66336;PMS1003;53139;45.576;5.304;2022-12-13T00:19:00;51.25;43.25;28.00
66336;PMS1003;53139;45.576;5.304;2022-12-13T00:22:01;54.33;44.33;27.67
66336;PMS1003;53139;45.576;5.304;2022-12-13T00:25:01;56.00;44.50;28.50
66336;PMS1003;53139;45.576;5.304;2022-12-13T00:28:02;55.75;46.75;30.00
66336;PMS1003;53139;45.576;5.304;2022-12-13T00:31:03;69.75;49.25;32.25
66336;PMS1003;53139;45.576;5.304;2022-12-13T00:34:03;65.00;50.25;33.00
66336;PMS1003;53139;45.576;5.304;2022-12-13T00:37:04;68.00;54.00;30.25
66336;PMS1003;53139;45.576;5.304;2022-12-13T00:40:04;56.00;46.00;30.00
66336;PMS1003;53139;45.576;5.304;2022-12-13T00:43:05;67.50;45.00;25.75
66336;PMS1003;53139;45.576;5.304;2022-12-13T00:46:06;62.67;46.00;30.00
66336;PMS1003;53139;45.576;5.304;2022-12-13T00:49:13;66.75;49.00;33.00
66336;PMS1003;53139;45.576;5.304;2022-12-13T00:52:14;55.67;43.67;27.67
66336;PMS1003;53139;45.576;5.304;2022-12-13T00:55:14;50.00;43.00;29.67
66336;PMS1003;53139;45.576;5.304;2022-12-13T00:58:15;60.00;45.75;29.75
66336;PMS1003;53139;45.576;5.304;2022-12-13T01:01:15;51.33;45.00;27.67
66336;PMS1003;53139;45.576;5.304;2022-12-13T01:04:17;60.75;46.75;30.00
66336;PMS1003;53139;45.576;5.304;2022-12-13T01:07:18;41.33;32.67;20.33
66336;PMS1003;53139;45.576;5.304;2022-12-13T01:10:18;41.33;36.00;24.67
66336;PMS1003;53139;45.576;5.304;2022-12-13T01:13:18;44.33;37.00;23.00
66336;PMS1003;53139;45.576;5.304;2022-12-13T01:16:19;37.33;32.00;19.00
66336;PMS1003;53139;45.576;5.304;2022-12-13T01:19:19;44.67;34.67;22.67
66336;PMS1003;53139;45.576;5.304;2022-12-13T01:22:19;41.50;30.75;20.50
66336;PMS1003;53139;45.576;5.304;2022-12-13T01:25:20;48.67;36.67;21.33
66336;PMS1003;53139;45.576;5.304;2022-12-13T01:28:20;39.00;27.33;19.00
66336;PMS1003;53139;45.576;5.304;2022-12-13T01:31:21;31.25;24.50;15.25
66336;PMS1003;53139;45.576;5.304;2022-12-13T01:34:22;28.67;26.00;18.00
66336;PMS1003;53139;45.576;5.304;2022-12-13T01:37:23;32.25;24.25;16.50
66336;PMS1003;53139;45.576;5.304;2022-12-13T01:40:24;40.50;26.25;15.75
66336;PMS1003;53139;45.576;5.304;2022-12-13T01:43:25;29.75;24.50;15.50
66336;PMS1003;53139;45.576;5.304;2022-12-13T01:46:47;32.00;26.50;17.75
66336;PMS1003;53139;45.576;5.304;2022-12-13T01:49:47;27.33;21.33;15.00
66336;PMS1003;53139;45.576;5.304;2022-12-13T01:52:48;24.00;21.00;13.00
66336;PMS1003;53139;45.576;5.304;2022-12-13T01:55:52;32.00;25.75;16.00
66336;PMS1003;53139;45.576;5.304;2022-12-13T01:58:56;28.50;22.25;15.25
66336;PMS1003;53139;45.576;5.304;2022-12-13T02:01:59;32.25;20.25;16.25
66336;PMS1003;53139;45.576;5.304;2022-12-13T02:08:38;27.50;23.75;17.75
66336;PMS1003;53139;45.576;5.304;2022-12-13T02:11:41;33.00;22.25;13.00
66336;PMS1003;53139;45.576;5.304;2022-12-13T02:14:43;24.50;21.75;15.25
66336;PMS1003;53139;45.576;5.304;2022-12-13T02:32:07;23.50;18.75;10.25
66336;PMS1003;53139;45.576;5.304;2022-12-13T02:42:08;20.75;19.00;13.00
66336;PMS1003;53139;45.576;5.304;2022-12-13T02:45:17;25.25;23.50;14.75
66336;PMS1003;53139;45.576;5.304;2022-12-13T02:48:25;30.50;24.25;17.50
66336;PMS1003;53139;45.576;5.304;2022-12-13T02:51:27;35.50;21.00;14.00
66336;PMS1003;53139;45.576;5.304;2022-12-13T02:54:30;30.75;24.00;16.00
66336;PMS1003;53139;45.576;5.304;2022-12-13T02:57:37;26.50;21.25;15.75
66336;PMS1003;53139;45.576;5.304;2022-12-13T03:00:57;16.50;14.00;11.25
66336;PMS1003;53139;45.576;5.304;2022-12-13T03:07:22;36.00;26.00;16.00
66336;PMS1003;53139;45.576;5.304;2022-12-13T03:10:36;27.00;19.75;13.75
66336;PMS1003;53139;45.576;5.304;2022-12-13T03:16:57;22.50;18.75;14.50
66336;PMS1003;53139;45.576;5.304;2022-12-13T03:20:00;25.00;23.00;14.50
66336;PMS1003;53139;45.576;5.304;2022-12-13T03:23:02;30.25;24.50;14.75
66336;PMS1003;53139;45.576;5.304;2022-12-13T03:26:08;24.25;16.25;12.00
66336;PMS1003;53139;45.576;5.304;2022-12-13T03:29:12;30.75;20.25;13.75
66336;PMS1003;53139;45.576;5.304;2022-12-13T03:32:13;29.00;18.50;13.00
66336;PMS1003;53139;45.576;5.304;2022-12-13T03:35:13;34.00;25.00;15.67
66336;PMS1003;53139;45.576;5.304;2022-12-13T03:38:15;29.50;25.00;14.00
66336;PMS1003;53139;45.576;5.304;2022-12-13T03:41:17;29.00;23.00;14.50
66336;PMS1003;53139;45.576;5.304;2022-12-13T03:44:20;25.50;19.00;12.00
66336;PMS1003;53139;45.576;5.304;2022-12-13T03:47:21;30.67;24.67;14.33
66336;PMS1003;53139;45.576;5.304;2022-12-13T03:50:21;31.25;23.75;15.75
66336;PMS1003;53139;45.576;5.304;2022-12-13T03:53:22;27.33;18.67;13.00
66336;PMS1003;53139;45.576;5.304;2022-12-13T03:56:23;27.25;19.75;13.00
66336;PMS1003;53139;45.576;5.304;2022-12-13T03:59:25;29.50;18.25;13.00
66336;PMS1003;53139;45.576;5.304;2022-12-13T04:02:26;24.25;20.00;13.00
66336;PMS1003;53139;45.576;5.304;2022-12-13T04:05:26;27.33;22.00;13.00
66336;PMS1003;53139;45.576;5.304;2022-12-13T04:08:27;34.00;23.25;16.50
66336;PMS1003;53139;45.576;5.304;2022-12-13T04:11:28;28.25;22.00;15.00
66336;PMS1003;53139;45.576;5.304;2022-12-13T04:14:47;28.25;21.50;14.75
66336;PMS1003;53139;45.576;5.304;2022-12-13T04:17:47;29.00;22.33;17.00
66336;PMS1003;53139;45.576;5.304;2022-12-13T04:20:47;22.33;14.67;11.33
66336;PMS1003;53139;45.576;5.304;2022-12-13T04:23:48;24.00;18.67;14.00
66336;PMS1003;53139;45.576;5.304;2022-12-13T04:26:48;13.33;13.33;10.33
66336;PMS1003;53139;45.576;5.304;2022-12-13T04:29:48;24.00;19.00;15.00
66336;PMS1003;53139;45.576;5.304;2022-12-13T04:32:49;18.00;11.67;8.00
66336;PMS1003;53139;45.576;5.304;2022-12-13T04:35:49;33.67;25.33;16.67
66336;PMS1003;53139;45.576;5.304;2022-12-13T04:38:50;22.25;22.25;13.50
66336;PMS1003;53139;45.576;5.304;2022-12-13T04:41:50;14.33;10.00;6.33
66336;PMS1003;53139;45.576;5.304;2022-12-13T04:44:51;38.25;25.50;19.00
66336;PMS1003;53139;45.576;5.304;2022-12-13T04:47:53;33.00;28.25;20.50
66336;PMS1003;53139;45.576;5.304;2022-12-13T04:50:53;35.00;23.00;13.50
66336;PMS1003;53139;45.576;5.304;2022-12-13T04:53:54;73.67;56.33;35.00
66336;PMS1003;53139;45.576;5.304;2022-12-13T04:56:54;35.67;30.33;18.00
66336;PMS1003;53139;45.576;5.304;2022-12-13T04:59:54;40.33;32.33;19.67
66336;PMS1003;53139;45.576;5.304;2022-12-13T05:02:55;68.00;50.50;33.00
